Impacts METAR Board INFO
IDs:

KORD - Chicago/O'Hare Intl, IL, US

Updated at: 1534 UTC 25 Feb 2018
Potential Impact None Slight Moderate High
Time25/03Z 25/04Z 25/05Z 25/06Z 25/07Z 25/08Z 25/09Z 25/10Z 25/11Z 25/12Z 25/13Z 25/14Z 25/15Z
VIS5 8 7 5 10 10 10 10 10 10 10 10 10
CIG5 6 5 5 12 15 22 17 23 23 26 27 25
CoverOVCOVCOVCOVCOVCOVCOVCOVCOVCOVCOVCBKNBKN
FltCatIFRIFRIFRIFRMVFRMVFRMVFRMVFRMVFRMVFRMVFRMVFRMVFR
WXBR-----RA BR------------------
WDir130140150240270260270250260270260250260
WSpd15 15 13 13 21 23 17 21 21 16 14 18 16
WGst-- 22 -- 18 30 34 34 33 37 23 22 25 28
Raw hourly METARs
KORD 250301Z 13015KT 5SM BR OVC005 07/06 A2956 RMK AO2 DZE0259 P0000 T00720056 $
KORD 250351Z 14015G22KT 8SM OVC006 08/06 A2950 RMK AO2 DZE0259RAB12E37 SLP993 P0000 T00780061 $
KORD 250451Z 15013KT 7SM OVC005 08/07 A2945 RMK AO2 PRESFR SLP974 T00830067 $
KORD 250605Z 24013G18KT 5SM -RA BR BKN005 OVC010 10/08 A2946 RMK AO2 WSHFT 0539 P0005 T01000083 $
KORD 250651Z 27021G30KT 10SM OVC012 08/06 A2949 RMK AO2 PK WND 24030/0616 WSHFT 0539 RAE45 SLP989 P0006 T00780056 $
KORD 250801Z 26023G34KT 10SM OVC015 03/M01 A2958 RMK AO2 PK WND 26034/0758 T00281006 $
KORD 250851Z 27017G34KT 10SM OVC022 02/M02 A2962 RMK AO2 PK WND 27036/0821 SLP034 60006 T00221022 51065 $
KORD 250951Z 25021G33KT 10SM OVC017 02/M03 A2965 RMK AO2 PK WND 26035/0902 SLP046 T00171028 $
KORD 251051Z 26021G37KT 10SM OVC023 01/M03 A2971 RMK AO2 PK WND 26039/1039 SLP065 T00111033 $
KORD 251151Z 27016G23KT 10SM OVC023 01/M04 A2974 RMK AO2 PK WND 27033/1127 SLP074 60006 70017 T00111039 10100 20011 51040 $
KORD 251251Z 26014G22KT 10SM OVC026 01/M03 A2977 RMK AO2 PK WND 24030/1210 SLP085 T00111033 $
KORD 251351Z 25018G25KT 10SM BKN027 01/M04 A2981 RMK AO2 PK WND 24028/1326 SLP098 T00111039 $
KORD 251451Z 26016G28KT 10SM BKN025 02/M04 A2983 RMK AO2 PK WND 24031/1440 SLP106 T00171039 51032 $